Time;durP1;ratioP1;P1;durP2;ratioP2;P2;SDS_P1;SDS_P2;PMS_P1;PMS_P2;Temp;Humidity;BMP_temperature;BMP_pressure;BME280_temperature;BME280_humidity;BME280_pressure;Samples;Min_cycle;Max_cycle;Signal;HPM_P1;HPM_P2
2024/04/18 00:00:38;;;;;;;0.95;0.60;;;;;;;14.78;100.00;98322.03;5422353;26;19995;-62
2024/04/18 00:03:04;;;;;;;1.50;0.73;;;;;;;14.98;100.00;98310.09;5422030;26;19995;-63
2024/04/18 00:05:31;;;;;;;2.40;0.63;;;;;;;15.00;100.00;98307.22;5422047;26;20117;-63
2024/04/18 00:07:57;;;;;;;0.75;0.50;;;;;;;15.08;100.00;98306.91;5422095;26;19995;-62
2024/04/18 00:10:23;;;;;;;1.45;0.70;;;;;;;15.21;100.00;98297.91;5421051;26;20000;-62
2024/04/18 00:12:49;;;;;;;0.63;0.63;;;;;;;15.29;100.00;98301.06;5420318;26;20230;-62
2024/04/18 00:15:16;;;;;;;1.15;0.60;;;;;;;15.27;100.00;98316.47;5421192;26;20007;-62
2024/04/18 00:17:42;;;;;;;1.30;1.10;;;;;;;15.17;100.00;98326.06;5422440;26;20018;-61
2024/04/18 00:20:08;;;;;;;1.65;0.90;;;;;;;15.15;100.00;98320.13;5421417;26;20116;-62
2024/04/18 00:22:34;;;;;;;1.60;0.60;;;;;;;15.08;100.00;98304.22;5423287;26;19991;-63
2024/04/18 00:25:00;;;;;;;1.88;0.82;;;;;;;15.27;100.00;98299.66;5421213;26;20023;-62
2024/04/18 00:27:27;;;;;;;1.45;0.82;;;;;;;15.33;100.00;98294.22;5422698;26;20123;-62
2024/04/18 00:29:53;;;;;;;2.65;0.80;;;;;;;15.36;100.00;98292.16;5420442;26;20307;-62
2024/04/18 00:32:19;;;;;;;2.25;0.80;;;;;;;15.48;100.00;98314.31;5422120;26;20230;-62
2024/04/18 00:34:45;;;;;;;1.73;0.70;;;;;;;15.45;100.00;98322.78;5420450;26;19992;-62
2024/04/18 00:37:11;;;;;;;0.95;0.70;;;;;;;15.47;100.00;98321.50;5421365;26;19991;-63
2024/04/18 00:39:38;;;;;;;0.73;0.57;;;;;;;15.32;100.00;98299.78;5421457;26;20014;-62
2024/04/18 00:42:04;;;;;;;1.02;0.80;;;;;;;15.07;100.00;98305.28;5421717;26;19995;-63
2024/04/18 00:44:31;;;;;;;1.40;0.80;;;;;;;15.19;100.00;98316.78;5421370;26;20010;-62
2024/04/18 00:46:57;;;;;;;1.20;0.47;;;;;;;15.23;100.00;98325.16;5421344;26;19996;-62
2024/04/18 00:49:24;;;;;;;1.95;0.75;;;;;;;15.22;100.00;98319.00;5421918;26;20011;-62
2024/04/18 00:51:51;;;;;;;1.95;0.50;;;;;;;15.34;100.00;98311.03;5421254;26;19992;-62
2024/04/18 00:54:17;;;;;;;2.40;0.82;;;;;;;15.42;100.00;98307.25;5421818;26;19992;-62
2024/04/18 00:56:45;;;;;;;1.25;0.70;;;;;;;15.39;100.00;98305.03;5419786;26;19991;-62
2024/04/18 00:59:12;;;;;;;1.98;0.80;;;;;;;15.34;100.00;98319.84;5421421;26;20081;-62
2024/04/18 01:01:39;;;;;;;0.82;0.73;;;;;;;15.26;100.00;98314.03;5419672;26;19996;-62
2024/04/18 01:04:05;;;;;;;1.75;0.80;;;;;;;15.26;100.00;98314.03;5421809;26;19995;-62
2024/04/18 01:06:32;;;;;;;1.20;0.55;;;;;;;15.31;100.00;98314.97;5419443;26;20006;-62
2024/04/18 01:09:01;;;;;;;1.52;0.70;;;;;;;15.22;100.00;98308.34;5422469;26;20168;-62
2024/04/18 01:11:27;;;;;;;2.00;0.80;;;;;;;15.28;100.00;98310.09;5420027;26;20061;-62
2024/04/18 01:13:53;;;;;;;1.50;0.52;;;;;;;15.20;100.00;98315.75;5421988;26;19999;-63
2024/04/18 01:16:19;;;;;;;1.10;0.70;;;;;;;15.19;100.00;98315.97;5421789;26;20007;-63
2024/04/18 01:18:45;;;;;;;0.70;0.63;;;;;;;15.38;100.00;98322.06;5421861;26;19999;-63
2024/04/18 01:21:11;;;;;;;0.70;0.70;;;;;;;15.17;100.00;98320.72;5419307;26;20156;-63
2024/04/18 01:23:36;;;;;;;0.98;0.60;;;;;;;15.19;100.00;98315.97;5421648;26;20039;-62
2024/04/18 01:26:02;;;;;;;1.27;0.68;;;;;;;15.24;100.00;98314.25;5420511;26;20417;-62
2024/04/18 01:28:29;;;;;;;1.10;0.60;;;;;;;15.37;100.00;98317.78;5424483;26;19995;-62
2024/04/18 01:30:55;;;;;;;1.42;1.33;;;;;;;15.21;100.00;98319.22;5421598;26;20002;-62
2024/04/18 01:33:21;;;;;;;0.70;0.60;;;;;;;15.27;100.00;98319.13;5424346;26;19991;-62
2024/04/18 01:35:47;;;;;;;1.13;0.73;;;;;;;15.12;100.00;98308.06;5421586;26;20390;-62
2024/04/18 01:38:12;;;;;;;2.15;0.90;;;;;;;14.88;100.00;98312.47;5425579;26;20003;-62
2024/04/18 01:40:38;;;;;;;1.45;1.20;;;;;;;15.17;100.00;98320.72;5424836;26;20003;-62
2024/04/18 01:43:06;;;;;;;0.98;0.70;;;;;;;15.17;100.00;98318.88;5421784;26;20221;-63
2024/04/18 01:45:32;;;;;;;1.80;1.05;;;;;;;15.18;100.00;98322.34;5424775;26;19992;-63
2024/04/18 01:47:58;;;;;;;2.40;0.90;;;;;;;15.24;100.00;98327.59;5421082;26;19999;-62
2024/04/18 01:50:24;;;;;;;1.70;1.00;;;;;;;15.29;100.00;98321.56;5424429;26;20210;-63
2024/04/18 01:52:50;;;;;;;1.10;0.88;;;;;;;15.29;100.00;98325.06;5421970;26;19995;-63
2024/04/18 01:55:16;;;;;;;2.45;0.88;;;;;;;15.21;100.00;98319.22;5424820;26;19995;-63
2024/04/18 01:57:42;;;;;;;1.63;0.90;;;;;;;15.21;100.00;98317.38;5421862;26;19996;-63
2024/04/18 02:00:08;;;;;;;1.35;0.80;;;;;;;15.11;100.00;98332.28;5424930;26;20044;-63
2024/04/18 02:02:34;;;;;;;1.60;0.60;;;;;;;15.06;100.00;98337.47;5421376;26;20011;-63
2024/04/18 02:05:00;;;;;;;1.20;0.70;;;;;;;15.08;100.00;98341.56;5424045;26;19995;-62
2024/04/18 02:07:26;;;;;;;1.42;0.52;;;;;;;15.09;100.00;98339.69;5421263;26;20003;-63
2024/04/18 02:09:52;;;;;;;1.85;0.80;;;;;;;15.10;100.00;98333.31;5424714;26;20083;-62
2024/04/18 02:12:17;;;;;;;0.70;0.60;;;;;;;15.04;100.00;98328.91;5421252;26;19998;-63
2024/04/18 02:14:43;;;;;;;0.80;0.52;;;;;;;14.91;100.00;98336.03;5422204;26;19994;-63
2024/04/18 02:17:09;;;;;;;0.80;0.70;;;;;;;14.81;100.00;98321.59;5423857;26;19987;-63
2024/04/18 02:19:36;;;;;;;0.68;0.68;;;;;;;14.75;100.00;98335.81;5423394;26;19999;-62
2024/04/18 02:22:02;;;;;;;0.82;0.60;;;;;;;14.61;100.00;98340.47;5423785;26;19998;-63
2024/04/18 02:24:27;;;;;;;1.33;1.02;;;;;;;14.45;100.00;98336.53;5421495;26;20003;-63
2024/04/18 02:26:53;;;;;;;1.17;0.90;;;;;;;14.39;100.00;98332.88;5423769;26;20002;-62
2024/04/18 02:29:19;;;;;;;1.98;1.35;;;;;;;14.35;100.00;98341.50;5422855;26;20113;-63
2024/04/18 02:31:45;;;;;;;1.50;1.30;;;;;;;14.29;100.00;98340.53;5423251;26;20006;-63
2024/04/18 02:34:11;;;;;;;1.30;1.00;;;;;;;14.21;100.00;98340.84;5421869;26;19991;-63
2024/04/18 02:36:37;;;;;;;1.52;1.15;;;;;;;14.18;100.00;98341.25;5422927;26;19987;-63
2024/04/18 02:39:03;;;;;;;1.13;1.00;;;;;;;14.10;100.00;98348.72;5420891;26;19996;-62
2024/04/18 02:41:29;;;;;;;1.55;1.30;;;;;;;13.89;100.00;98341.94;5422581;26;20006;-63
2024/04/18 02:43:55;;;;;;;2.65;1.00;;;;;;;13.74;100.00;98348.41;5421229;26;20206;-62
2024/04/18 02:46:22;;;;;;;1.77;1.27;;;;;;;13.43;100.00;98351.03;5423946;26;20153;-62
2024/04/18 02:48:48;;;;;;;1.40;1.23;;;;;;;13.32;100.00;98354.38;5421292;26;20263;-63
2024/04/18 02:51:14;;;;;;;2.33;1.45;;;;;;;13.26;100.00;98353.38;5421270;26;19996;-63
2024/04/18 02:53:40;;;;;;;1.48;1.38;;;;;;;13.27;100.00;98351.53;5424217;26;19999;-63
2024/04/18 02:56:06;;;;;;;2.55;1.40;;;;;;;13.37;99.47;98354.56;5422513;26;20003;-64
2024/04/18 02:58:32;;;;;;;3.03;1.60;;;;;;;13.31;97.74;98358.88;5423363;26;20034;-62
2024/04/18 03:01:04;;;;;;;4.00;1.88;;;;;;;13.32;96.05;98360.50;5420365;26;19999;-62
2024/04/18 03:03:30;;;;;;;1.58;1.48;;;;;;;13.26;94.96;98357.88;5423286;26;19992;-63
2024/04/18 03:06:03;;;;;;;2.63;1.88;;;;;;;13.12;96.09;98359.75;5421395;26;20006;-64
2024/04/18 03:08:29;;;;;;;2.17;1.70;;;;;;;12.98;95.68;98352.88;5421473;26;19991;-61
2024/04/18 03:10:55;;;;;;;2.70;2.28;;;;;;;12.93;95.38;98353.50;5423888;26;20162;-61
2024/04/18 03:13:21;;;;;;;3.15;1.83;;;;;;;12.82;94.40;98370.09;5420693;26;19991;-61
2024/04/18 03:15:47;;;;;;;3.22;1.90;;;;;;;12.60;96.09;98377.53;5421274;26;20209;-62
2024/04/18 03:18:13;;;;;;;2.40;2.17;;;;;;;12.62;96.83;98383.44;5421420;26;19991;-63
2024/04/18 03:20:40;;;;;;;2.65;2.08;;;;;;;12.64;94.16;98392.03;5421798;26;20199;-62
2024/04/18 03:23:09;;;;;;;3.03;1.90;;;;;;;12.55;94.66;98387.97;5422625;26;20011;-62
2024/04/18 03:25:35;;;;;;;3.13;2.30;;;;;;;12.31;97.55;98388.59;5421551;26;20496;-63
2024/04/18 03:28:01;;;;;;;2.80;1.77;;;;;;;12.35;95.03;98387.16;5422841;26;20003;-63
2024/04/18 03:30:27;;;;;;;2.20;1.70;;;;;;;12.36;94.22;98375.50;5421925;26;20043;-63
2024/04/18 03:32:53;;;;;;;3.50;2.00;;;;;;;12.45;92.06;98385.69;5422473;26;19992;-63
2024/04/18 03:35:19;;;;;;;2.97;1.70;;;;;;;12.53;91.27;98387.34;5423634;26;20006;-63
2024/04/18 03:37:45;;;;;;;2.40;1.80;;;;;;;12.50;92.20;98393.06;5422109;26;19992;-63
2024/04/18 03:40:11;;;;;;;2.70;1.55;;;;;;;12.32;92.71;98399.00;5423022;26;20003;-63
2024/04/18 03:42:37;;;;;;;3.95;1.98;;;;;;;12.38;93.74;98400.81;5420948;26;19998;-64
2024/04/18 03:45:03;;;;;;;3.72;1.98;;;;;;;12.52;91.76;98399.00;5423103;26;19999;-62
2024/04/18 03:47:29;;;;;;;2.80;1.92;;;;;;;12.46;91.74;98392.63;5421943;26;19987;-63
2024/04/18 03:49:55;;;;;;;3.83;2.10;;;;;;;12.57;91.05;98401.84;5423628;26;19998;-62
2024/04/18 03:52:21;;;;;;;3.75;2.20;;;;;;;12.72;88.94;98405.06;5419420;26;19996;-63
2024/04/18 03:54:47;;;;;;;3.20;1.60;;;;;;;12.38;87.25;98413.28;5422851;26;19995;-63
2024/04/18 03:57:13;;;;;;;3.13;1.88;;;;;;;12.01;90.14;98410.22;5420974;26;20010;-63
2024/04/18 03:59:39;;;;;;;2.35;1.40;;;;;;;12.27;87.64;98414.72;5423696;26;19992;-62
2024/04/18 04:02:05;;;;;;;1.88;1.50;;;;;;;11.92;88.88;98413.28;5420025;26;20014;-63
2024/04/18 04:04:31;;;;;;;3.05;1.60;;;;;;;12.29;89.18;98406.53;5422357;26;19992;-63
2024/04/18 04:06:56;;;;;;;4.07;1.75;;;;;;;12.44;88.96;98409.81;5399892;26;20011;-62
2024/04/18 04:09:22;;;;;;;3.50;1.77;;;;;;;12.65;87.83;98412.25;5387538;26;19992;-63
2024/04/18 04:11:48;;;;;;;2.47;1.67;;;;;;;12.79;87.73;98413.03;5403646;26;20003;-64
2024/04/18 04:14:15;;;;;;;1.50;1.40;;;;;;;12.80;88.09;98414.66;5421757;26;20002;-62
2024/04/18 04:16:40;;;;;;;2.50;1.58;;;;;;;12.86;88.80;98410.34;5421153;26;20003;-63
2024/04/18 04:19:06;;;;;;;3.45;1.77;;;;;;;12.94;89.05;98423.41;5421094;26;20011;-63
2024/04/18 04:21:33;;;;;;;3.45;1.90;;;;;;;13.03;89.29;98422.97;5421719;26;20292;-63
2024/04/18 04:23:59;;;;;;;3.08;1.83;;;;;;;13.15;89.28;98425.78;5421609;26;19991;-64
2024/04/18 04:26:25;;;;;;;4.85;2.70;;;;;;;13.17;88.80;98428.25;5421814;26;19992;-63
2024/04/18 04:28:51;;;;;;;3.25;1.88;;;;;;;13.05;87.33;98428.88;5421884;26;19988;-63
2024/04/18 04:31:17;;;;;;;3.13;2.28;;;;;;;13.08;87.55;98440.94;5423633;26;20157;-63
2024/04/18 04:33:42;;;;;;;3.67;1.77;;;;;;;13.01;87.23;98448.13;5420058;26;20007;-63
2024/04/18 04:36:08;;;;;;;4.28;1.75;;;;;;;13.04;86.38;98459.16;5423034;26;19997;-63
2024/04/18 04:38:34;;;;;;;4.03;1.77;;;;;;;13.01;86.21;98462.22;5421353;26;20094;-63
2024/04/18 04:41:00;;;;;;;3.20;2.00;;;;;;;12.90;87.55;98462.84;5422724;26;19995;-63
2024/04/18 04:43:26;;;;;;;2.78;1.98;;;;;;;12.83;87.85;98466.56;5421278;26;19998;-63
2024/04/18 04:45:55;;;;;;;2.97;1.90;;;;;;;12.81;87.47;98477.38;5421194;26;19995;-64
2024/04/18 04:48:21;;;;;;;2.60;1.63;;;;;;;12.85;86.53;98486.56;5419562;26;20002;-63
2024/04/18 04:51:02;;;;;;;2.53;1.77;;;;;;;12.83;85.92;98485.97;5421639;26;20106;-63
2024/04/18 04:53:28;;;;;;;2.17;1.50;;;;;;;12.82;86.32;98486.16;5418126;26;20003;-63
2024/04/18 04:55:54;;;;;;;3.42;1.75;;;;;;;12.65;86.64;98485.78;5422317;26;20011;-63
2024/04/18 04:58:21;;;;;;;4.38;1.70;;;;;;;12.69;85.97;98494.97;5416611;26;20016;-63
2024/04/18 05:00:47;;;;;;;2.30;1.90;;;;;;;12.61;85.70;98503.16;5424994;26;20465;-62
2024/04/18 05:03:13;;;;;;;2.20;1.63;;;;;;;12.63;86.47;98496.63;5422179;26;20001;-63
2024/04/18 05:05:43;;;;;;;2.35;1.33;;;;;;;12.75;87.39;98491.50;5426068;26;20430;-63
2024/04/18 05:08:09;;;;;;;3.42;2.00;;;;;;;12.76;84.79;98499.25;5422097;26;20000;-63
2024/04/18 05:10:43;;;;;;;2.08;1.48;;;;;;;12.66;81.42;98517.44;5424108;26;19991;-62
2024/04/18 05:13:12;;;;;;;2.83;1.90;;;;;;;12.56;81.22;98511.72;5424079;26;20869;-63
2024/04/18 05:15:39;;;;;;;1.92;1.40;;;;;;;12.30;80.69;98525.78;5424062;26;20031;-63
2024/04/18 05:18:06;;;;;;;2.78;1.50;;;;;;;12.36;80.53;98524.16;5423734;26;20272;-63
2024/04/18 05:20:32;;;;;;;2.33;1.83;;;;;;;12.05;80.03;98520.22;5422678;26;20066;-63
2024/04/18 05:22:58;;;;;;;3.20;1.70;;;;;;;12.09;81.84;98523.31;5424849;26;20007;-63
2024/04/18 05:25:24;;;;;;;2.63;1.80;;;;;;;12.25;81.07;98522.91;5422537;26;20043;-63
2024/04/18 05:28:03;;;;;;;3.13;1.83;;;;;;;12.16;81.35;98521.47;5423762;26;20011;-64
2024/04/18 05:33:16;;;;;;;2.90;1.92;;;;;;;12.43;81.20;98509.88;5424876;26;20011;-63
2024/04/18 05:35:42;;;;;;;2.70;1.75;;;;;;;12.30;82.06;98514.34;5423043;26;20199;-63
2024/04/18 05:38:08;;;;;;;2.08;1.70;;;;;;;12.46;81.19;98513.94;5422741;26;19998;-63
2024/04/18 05:40:33;;;;;;;1.83;1.45;;;;;;;12.13;82.02;98505.97;5422471;26;20414;-63
2024/04/18 05:42:59;;;;;;;2.38;1.60;;;;;;;12.23;83.19;98519.66;5424423;26;20081;-64
2024/04/18 05:45:25;;;;;;;2.60;1.73;;;;;;;12.34;82.42;98521.69;5421807;26;20004;-64
2024/04/18 05:47:51;;;;;;;2.47;1.60;;;;;;;12.39;81.89;98523.75;5424048;26;19992;-63
2024/04/18 05:50:17;;;;;;;3.38;1.70;;;;;;;12.42;82.98;98508.22;5422265;26;20058;-63
2024/04/18 05:52:43;;;;;;;3.05;2.10;;;;;;;12.63;80.95;98525.00;5424417;26;20630;-63
2024/04/18 05:55:09;;;;;;;2.92;1.70;;;;;;;12.53;79.10;98532.56;5420979;26;19999;-63
2024/04/18 05:57:35;;;;;;;2.53;1.88;;;;;;;12.66;79.68;98541.34;5424350;26;20249;-63
2024/04/18 06:00:01;;;;;;;1.85;1.50;;;;;;;12.69;81.12;98535.63;5423344;26;20003;-64
2024/04/18 06:02:27;;;;;;;2.58;1.55;;;;;;;12.51;79.22;98537.25;5422710;26;20089;-63
2024/04/18 06:04:53;;;;;;;3.42;1.73;;;;;;;12.86;78.39;98545.84;5425401;26;20006;-63
2024/04/18 06:07:19;;;;;;;1.45;1.30;;;;;;;13.00;77.92;98547.44;5422336;26;19996;-64
2024/04/18 06:09:45;;;;;;;2.53;1.60;;;;;;;13.02;79.22;98546.22;5423781;26;19991;-62
2024/04/18 06:12:10;;;;;;;2.05;1.60;;;;;;;13.00;78.03;98555.44;5420038;26;19995;-63
2024/04/18 06:14:36;;;;;;;2.03;1.48;;;;;;;13.08;77.53;98561.34;5424224;26;19995;-63
2024/04/18 06:17:02;;;;;;;2.42;1.75;;;;;;;13.05;78.08;98559.09;5421943;26;20087;-63
2024/04/18 06:19:28;;;;;;;2.72;1.65;;;;;;;12.92;82.61;98567.09;5423739;26;20215;-63
2024/04/18 06:21:54;;;;;;;3.42;1.70;;;;;;;12.91;82.25;98559.31;5421749;26;20007;-63
2024/04/18 06:24:20;;;;;;;2.53;1.40;;;;;;;13.00;76.75;98577.50;5424077;26;19996;-63
2024/04/18 06:26:46;;;;;;;2.03;1.83;;;;;;;13.14;74.65;98575.66;5419557;26;20100;-64
2024/04/18 06:29:12;;;;;;;2.80;1.95;;;;;;;13.43;73.85;98574.38;5422317;26;19991;-63
2024/04/18 06:31:38;;;;;;;2.72;1.63;;;;;;;13.36;73.60;98584.22;5420603;26;20002;-63
2024/04/18 06:34:04;;;;;;;1.83;1.15;;;;;;;13.23;73.24;98585.06;5421122;26;19987;-63
2024/04/18 06:36:30;;;;;;;2.95;1.48;;;;;;;13.31;73.91;98592.00;5423063;26;19992;-63
2024/04/18 06:38:56;;;;;;;1.75;1.40;;;;;;;13.37;72.30;98601.81;5421354;26;20218;-62
2024/04/18 06:41:22;;;;;;;1.67;1.23;;;;;;;13.27;73.00;98604.06;5421258;26;19996;-63
2024/04/18 06:43:48;;;;;;;1.95;1.38;;;;;;;13.34;73.81;98608.34;5422896;26;20204;-63
2024/04/18 06:46:14;;;;;;;1.52;1.15;;;;;;;13.23;74.51;98621.47;5421037;26;19996;-63
2024/04/18 06:48:40;;;;;;;1.40;1.10;;;;;;;13.27;73.00;98628.00;5421518;26;20082;-63
2024/04/18 06:51:06;;;;;;;1.70;1.40;;;;;;;13.24;72.64;98633.72;5421903;26;20124;-63
2024/04/18 06:53:32;;;;;;;1.83;1.50;;;;;;;13.25;72.88;98646.81;5420477;26;20108;-63
2024/04/18 06:55:59;;;;;;;2.80;1.65;;;;;;;13.33;73.79;98651.09;5422943;26;20222;-64
2024/04/18 06:58:25;;;;;;;1.95;1.33;;;;;;;12.99;78.20;98644.13;5421050;26;20322;-63
2024/04/18 07:00:51;;;;;;;1.70;1.48;;;;;;;12.76;78.57;98642.69;5422429;26;19999;-63
2024/04/18 07:03:18;;;;;;;2.17;1.52;;;;;;;12.97;77.28;98646.19;5420404;26;20206;-63
2024/04/18 07:05:44;;;;;;;2.17;1.60;;;;;;;13.20;73.79;98657.25;5422190;26;20498;-63
2024/04/18 07:08:10;;;;;;;1.75;1.60;;;;;;;13.23;72.42;98650.69;5418016;26;20149;-63
2024/04/18 07:10:36;;;;;;;3.00;1.80;;;;;;;13.34;72.44;98650.91;5421295;26;20098;-63
2024/04/18 07:13:03;;;;;;;2.80;2.30;;;;;;;13.44;73.64;98642.50;5421118;26;19991;-63
2024/04/18 07:15:29;;;;;;;1.98;1.52;;;;;;;13.30;72.11;98654.19;5421724;26;19995;-63
2024/04/18 07:17:56;;;;;;;4.53;1.92;;;;;;;13.39;72.15;98658.25;5422071;26;20056;-63
2024/04/18 07:20:22;;;;;;;5.28;2.28;;;;;;;13.36;72.62;98650.69;5420441;26;19988;-63
2024/04/18 07:22:48;;;;;;;3.10;2.08;;;;;;;13.58;72.47;98649.47;5421078;26;20214;-63
2024/04/18 07:25:14;;;;;;;4.43;2.00;;;;;;;13.82;70.07;98655.94;5420303;26;19991;-64
2024/04/18 07:27:40;;;;;;;3.72;1.77;;;;;;;13.73;70.11;98665.19;5421727;26;20007;-62
2024/04/18 07:30:08;;;;;;;2.63;1.92;;;;;;;13.71;70.24;98664.56;5422917;26;20196;-62
2024/04/18 07:32:34;;;;;;;4.80;1.95;;;;;;;13.60;70.22;98662.56;5421759;26;20020;-63
2024/04/18 07:35:00;;;;;;;3.13;2.13;;;;;;;13.63;69.83;98659.47;5422060;26;19996;-63
2024/04/18 07:37:26;;;;;;;2.45;1.70;;;;;;;13.69;72.01;98656.81;5423016;26;20090;-63
2024/04/18 07:39:53;;;;;;;2.30;1.92;;;;;;;13.87;70.36;98664.13;5420459;26;20148;-64
2024/04/18 07:42:19;;;;;;;2.95;2.25;;;;;;;13.88;68.82;98663.09;5421984;26;20256;-63
2024/04/18 07:44:45;;;;;;;2.50;1.85;;;;;;;13.72;68.53;98672.34;5421376;26;20019;-64
2024/04/18 07:47:11;;;;;;;3.08;1.95;;;;;;;13.60;67.50;98673.19;5420960;26;19987;-63
2024/04/18 07:49:38;;;;;;;3.50;2.60;;;;;;;13.58;66.90;98669.91;5420409;26;20431;-62
2024/04/18 07:52:04;;;;;;;3.60;2.28;;;;;;;13.61;69.16;98680.16;5421461;26;19995;-63
2024/04/18 07:54:30;;;;;;;3.10;2.47;;;;;;;13.50;68.14;98681.56;5421883;26;19995;-63
2024/04/18 07:56:56;;;;;;;3.28;2.38;;;;;;;13.56;68.65;98675.44;5420379;26;20010;-63
2024/04/18 07:59:22;;;;;;;2.70;2.03;;;;;;;13.55;68.02;98680.97;5420973;26;20091;-63
2024/04/18 08:01:48;;;;;;;3.30;1.83;;;;;;;13.62;69.47;98677.28;5420143;26;20011;-64
2024/04/18 08:04:14;;;;;;;2.65;2.20;;;;;;;13.73;68.30;98676.63;5420833;26;19995;-63
2024/04/18 08:06:40;;;;;;;2.60;1.70;;;;;;;13.85;64.00;98683.97;5420166;26;20023;-63
2024/04/18 08:09:06;;;;;;;2.00;1.77;;;;;;;13.91;65.29;98689.28;5422397;26;20057;-63
2024/04/18 08:11:31;;;;;;;2.83;2.35;;;;;;;14.01;66.38;98683.53;5419147;26;19999;-63
2024/04/18 08:13:57;;;;;;;3.58;2.10;;;;;;;13.95;64.60;98692.34;5421780;26;20089;-63
2024/04/18 08:16:23;;;;;;;2.15;1.80;;;;;;;13.90;64.82;98694.81;5418835;26;20241;-63
2024/04/18 08:18:49;;;;;;;2.67;1.95;;;;;;;14.03;64.96;98690.28;5421588;26;19991;-63
2024/04/18 08:21:15;;;;;;;2.65;2.10;;;;;;;14.05;65.01;98684.75;5420332;26;20168;-63
2024/04/18 08:23:50;;;;;;;2.03;1.83;;;;;;;14.14;65.42;98688.78;5420593;26;19995;-64
2024/04/18 08:26:16;;;;;;;2.15;1.83;;;;;;;14.44;66.20;98690.97;5419791;26;20052;-63
2024/04/18 08:28:42;;;;;;;2.65;2.00;;;;;;;14.61;66.43;98690.28;5419308;26;20016;-64
2024/04/18 08:31:09;;;;;;;2.83;2.17;;;;;;;14.68;64.60;98688.41;5419857;26;20114;-64
2024/04/18 08:33:35;;;;;;;4.07;1.88;;;;;;;14.69;62.87;98686.56;5420751;26;20089;-64
2024/04/18 08:36:01;;;;;;;3.70;2.17;;;;;;;14.79;62.61;98680.75;5422606;26;20180;-64
2024/04/18 08:38:27;;;;;;;2.45;1.83;;;;;;;14.65;61.40;98683.50;5425348;26;20060;-63
2024/04/18 08:40:53;;;;;;;2.95;2.00;;;;;;;14.84;61.84;98680.91;5421284;26;20007;-64
2024/04/18 08:43:19;;;;;;;3.05;2.25;;;;;;;14.96;63.12;98679.19;5424505;26;20177;-64
2024/04/18 08:45:46;;;;;;;2.92;2.17;;;;;;;15.01;62.10;98679.38;5422454;26;19999;-63
2024/04/18 08:48:13;;;;;;;4.00;1.80;;;;;;;15.13;61.14;98677.63;5424147;26;19999;-63
2024/04/18 08:50:41;;;;;;;2.97;1.95;;;;;;;15.21;61.95;98684.53;5424997;26;19988;-63
2024/04/18 08:53:09;;;;;;;2.33;1.63;;;;;;;15.69;61.16;98674.09;5422775;26;20042;-64
2024/04/18 08:55:36;;;;;;;2.40;1.70;;;;;;;16.24;62.96;98682.13;5421928;26;20003;-63
2024/04/18 08:58:05;;;;;;;1.75;1.50;;;;;;;16.45;55.37;98675.47;5422975;26;20202;-64
2024/04/18 09:00:33;;;;;;;2.05;1.42;;;;;;;16.37;53.47;98670.44;5423733;26;20010;-63
2024/04/18 09:02:59;;;;;;;3.33;1.90;;;;;;;16.68;55.26;98683.66;5449313;26;20210;-63
2024/04/18 09:05:25;;;;;;;4.97;1.60;;;;;;;16.89;51.35;98682.31;5425161;26;19992;-63
2024/04/18 09:07:51;;;;;;;1.58;1.48;;;;;;;16.97;53.81;98678.50;5422812;26;20336;-63
2024/04/18 09:10:21;;;;;;;1.35;1.20;;;;;;;17.04;49.54;98671.19;5423506;26;20246;-64
2024/04/18 09:12:51;;;;;;;1.42;1.23;;;;;;;17.13;51.80;98675.16;5421811;26;19999;-64
2024/04/18 09:15:17;;;;;;;1.98;1.80;;;;;;;17.27;51.65;98691.81;5423535;26;20011;-62
2024/04/18 09:17:42;;;;;;;1.63;1.52;;;;;;;17.34;50.26;98692.53;5421912;26;20230;-63
2024/04/18 09:20:09;;;;;;;1.80;1.33;;;;;;;17.10;50.90;98707.72;5423858;26;19999;-63
2024/04/18 09:22:35;;;;;;;1.83;1.25;;;;;;;17.16;50.08;98707.63;5420530;26;20000;-63
2024/04/18 09:25:06;;;;;;;3.10;1.30;;;;;;;17.28;52.82;98702.28;5424312;26;20044;-63
2024/04/18 09:27:34;;;;;;;2.35;1.52;;;;;;;17.54;53.18;98699.16;5422302;26;20039;-63
2024/04/18 09:30:00;;;;;;;2.72;1.17;;;;;;;17.46;49.43;98690.66;5424991;26;19996;-64
2024/04/18 09:32:26;;;;;;;1.55;1.45;;;;;;;17.27;48.91;98700.66;5423333;26;20016;-64
2024/04/18 09:34:57;;;;;;;2.00;1.30;;;;;;;17.34;50.26;98711.25;5420736;26;20049;-64
2024/04/18 09:37:28;;;;;;;1.35;1.25;;;;;;;17.31;51.03;98707.19;5423774;26;20003;-62
2024/04/18 09:39:57;;;;;;;2.25;1.30;;;;;;;17.10;47.56;98715.75;5421898;26;20028;-63
2024/04/18 09:42:53;;;;;;;1.38;1.15;;;;;;;17.29;49.10;98713.81;5422625;26;20004;-64
2024/04/18 09:45:20;;;;;;;2.25;1.30;;;;;;;17.03;50.17;98713.16;5422877;26;20015;-64
2024/04/18 09:47:47;;;;;;;2.28;1.67;;;;;;;17.17;50.24;98701.22;5422641;26;20203;-64
2024/04/18 09:50:14;;;;;;;1.27;1.00;;;;;;;17.08;49.88;98707.13;5422061;26;20000;-64
2024/04/18 09:52:46;;;;;;;1.23;1.13;;;;;;;16.70;47.81;98697.59;5423495;26;20056;-63
2024/04/18 09:55:13;;;;;;;1.35;1.25;;;;;;;16.39;49.05;98706.59;5422284;26;20085;-64
2024/04/18 09:57:42;;;;;;;2.05;1.00;;;;;;;16.48;50.58;98705.25;5422747;26;20040;-64
2024/04/18 10:00:10;;;;;;;2.70;1.52;;;;;;;16.81;50.81;98706.72;5420943;26;20018;-63
2024/04/18 10:02:37;;;;;;;1.30;1.20;;;;;;;17.01;51.33;98703.75;5421655;26;20003;-63
2024/04/18 10:05:04;;;;;;;1.23;1.02;;;;;;;17.11;47.97;98698.66;5422087;26;19992;-63
2024/04/18 10:07:32;;;;;;;1.25;1.08;;;;;;;17.15;47.91;98695.28;5421577;26;20277;-63
2024/04/18 10:09:59;;;;;;;1.38;1.00;;;;;;;16.83;47.40;98697.41;5420296;26;19987;-64
2024/04/18 10:12:34;;;;;;;2.85;1.70;;;;;;;16.68;47.84;98699.69;5422305;26;19995;-63
2024/04/18 10:15:01;;;;;;;1.27;1.17;;;;;;;16.99;47.91;98706.66;5421514;26;20003;-64
2024/04/18 10:17:32;;;;;;;1.90;0.98;;;;;;;16.95;49.97;98691.28;5422120;26;20006;-64
2024/04/18 10:20:02;;;;;;;1.55;1.45;;;;;;;17.17;47.59;98709.25;5421409;26;19999;-63
2024/04/18 10:22:29;;;;;;;1.25;1.02;;;;;;;16.88;46.58;98704.75;5422612;26;19996;-63
2024/04/18 10:24:55;;;;;;;3.30;1.38;;;;;;;16.66;47.35;98695.63;5422479;26;19995;-64
2024/04/18 10:27:21;;;;;;;1.40;1.30;;;;;;;16.71;48.05;98703.78;5421158;26;19997;-64
2024/04/18 10:29:58;;;;;;;1.30;1.20;;;;;;;16.92;49.24;98695.25;5421995;26;19996;-63
2024/04/18 10:32:27;;;;;;;0.98;0.88;;;;;;;16.87;48.45;98705.81;5421619;26;19996;-63
2024/04/18 10:34:53;;;;;;;2.65;1.80;;;;;;;16.84;48.82;98719.63;5422208;26;20023;-63
2024/04/18 10:37:21;;;;;;;1.00;0.90;;;;;;;16.70;47.83;98710.16;5418941;26;20206;-63
2024/04/18 10:39:48;;;;;;;2.47;1.35;;;;;;;16.81;49.41;98707.53;5422775;26;19996;-63
2024/04/18 10:42:18;;;;;;;2.72;1.10;;;;;;;16.81;49.66;98712.06;5421700;26;20209;-63
2024/04/18 10:44:47;;;;;;;2.28;1.40;;;;;;;17.03;49.42;98723.88;5421097;26;20218;-63
2024/04/18 10:47:13;;;;;;;2.25;1.13;;;;;;;17.09;48.37;98730.16;5421201;26;19999;-63
2024/04/18 10:49:39;;;;;;;1.65;1.20;;;;;;;17.22;49.01;98721.94;5423468;26;19999;-63
2024/04/18 10:52:10;;;;;;;1.60;1.30;;;;;;;17.19;49.00;98717.88;5420697;26;20004;-63
2024/04/18 10:54:37;;;;;;;1.10;1.05;;;;;;;17.04;46.98;98704.09;5423278;26;20010;-63
2024/04/18 10:57:03;;;;;;;2.15;1.33;;;;;;;17.15;45.89;98703.31;5420603;26;20007;-63
2024/04/18 10:59:29;;;;;;;1.33;1.20;;;;;;;17.23;47.19;98700.31;5422579;26;19999;-64
2024/04/18 11:02:05;;;;;;;1.73;1.20;;;;;;;17.18;46.44;98696.69;5421306;26;20543;-63
2024/04/18 11:04:31;;;;;;;1.73;1.10;;;;;;;16.94;44.77;98692.34;5423089;26;19995;-63
2024/04/18 11:06:57;;;;;;;1.20;1.10;;;;;;;17.03;45.71;98696.31;5421852;26;20117;-64
2024/04/18 11:09:23;;;;;;;1.65;1.15;;;;;;;17.11;46.52;98699.47;5422730;26;19999;-64
2024/04/18 11:11:50;;;;;;;1.77;1.27;;;;;;;17.15;46.73;98700.63;5422365;26;20011;-64
2024/04/18 11:14:17;;;;;;;1.77;1.30;;;;;;;17.19;46.70;98701.81;5422978;26;20137;-64
2024/04/18 11:16:44;;;;;;;1.30;1.00;;;;;;;17.17;47.73;98697.75;5421498;26;19999;-63
2024/04/18 11:19:11;;;;;;;1.80;1.10;;;;;;;17.18;46.76;98710.88;5421580;26;19995;-64
2024/04/18 11:21:36;;;;;;;1.30;1.10;;;;;;;16.99;45.80;98709.31;5421900;26;20342;-63
2024/04/18 11:24:02;;;;;;;1.60;1.23;;;;;;;17.17;46.39;98711.94;5421391;26;19996;-63
2024/04/18 11:26:29;;;;;;;1.92;1.40;;;;;;;17.34;46.58;98700.56;5422091;26;19995;-63
2024/04/18 11:28:57;;;;;;;2.20;1.40;;;;;;;17.45;46.04;98700.56;5420128;26;20222;-64
2024/04/18 11:31:23;;;;;;;2.55;1.38;;;;;;;17.60;46.43;98707.31;5423131;26;20323;-64